createdAt,value
2024-01-15T00:00:23.567Z,75.36
2024-01-15T00:02:50.456Z,74.53
2024-01-15T00:05:17.308Z,73.59
2024-01-15T00:07:44.214Z,74.35
2024-01-15T00:10:11.269Z,74.59
2024-01-15T00:12:38.216Z,73.71
2024-01-15T00:15:06.096Z,73.93
2024-01-15T00:17:33.255Z,74.48
2024-01-15T00:20:00.165Z,74.38
2024-01-15T00:22:28.330Z,73.63
2024-01-15T00:24:55.326Z,73.22
2024-01-15T00:27:22.377Z,73.16
2024-01-15T00:29:49.341Z,74.22
2024-01-15T00:32:16.072Z,74.32
2024-01-15T00:34:43.970Z,73.95
2024-01-15T00:37:10.798Z,74.14
2024-01-15T00:39:37.898Z,74.06
2024-01-15T00:42:05.107Z,74.16
2024-01-15T00:44:32.020Z,73.85
2024-01-15T00:46:59.520Z,73.74
2024-01-15T00:49:28.316Z,74.21
2024-01-15T00:51:55.371Z,74.44
2024-01-15T00:54:22.377Z,74.19
2024-01-15T00:56:49.305Z,74.73
2024-01-15T00:59:16.352Z,74.11
2024-01-15T01:01:45.078Z,74.08
2024-01-15T01:04:12.160Z,74.43
2024-01-15T01:06:39.788Z,74.16
2024-01-15T01:09:06.837Z,74.37
2024-01-15T01:11:33.825Z,73.88
2024-01-15T01:14:01.831Z,73.71
2024-01-15T01:16:29.246Z,74.14
2024-01-15T01:18:56.219Z,73.46
2024-01-15T01:21:23.298Z,73.64
2024-01-15T01:23:50.603Z,72.81
2024-01-15T01:26:18.551Z,73.56
2024-01-15T01:28:45.651Z,74.41
2024-01-15T01:31:12.552Z,74.42
2024-01-15T01:33:41.596Z,73.57
2024-01-15T01:36:10.509Z,73.88
2024-01-15T01:38:38.230Z,73.60
2024-01-15T01:41:05.363Z,73.75
2024-01-15T01:43:32.273Z,74.10
2024-01-15T01:46:01.098Z,74.02
2024-01-15T01:48:28.919Z,73.91
2024-01-15T01:50:59.173Z,74.07
2024-01-15T01:53:30.563Z,73.94
2024-01-15T01:55:58.624Z,73.57
2024-01-15T01:58:26.822Z,72.92
2024-01-15T02:00:55.199Z,73.86
2024-01-15T02:03:22.517Z,71.71
2024-01-15T02:05:50.756Z,72.51
2024-01-15T02:08:18.116Z,72.13
2024-01-15T02:10:44.968Z,72.33
2024-01-15T02:13:12.123Z,73.34
2024-01-15T02:15:39.171Z,73.06
2024-01-15T02:18:08.948Z,73.69
2024-01-15T02:20:36.831Z,73.61
2024-01-15T02:23:10.578Z,73.13
2024-01-15T02:25:42.838Z,73.14
2024-01-15T02:28:11.437Z,72.71
2024-01-15T02:30:42.180Z,73.18
2024-01-15T02:33:11.022Z,73.48
2024-01-15T02:35:38.147Z,73.52
2024-01-15T02:38:06.311Z,73.69
2024-01-15T02:40:33.728Z,73.74
2024-01-15T02:43:00.660Z,73.38
2024-01-15T02:45:28.220Z,74.15
2024-01-15T02:47:55.066Z,73.30
2024-01-15T02:50:22.126Z,71.40
2024-01-15T02:52:48.969Z,70.19
2024-01-15T02:55:16.353Z,69.92
2024-01-15T02:57:43.323Z,69.74
2024-01-15T03:00:10.921Z,71.07
2024-01-15T03:02:48.384Z,70.49
2024-01-15T03:05:16.395Z,71.89
2024-01-15T03:07:43.893Z,72.02
2024-01-15T03:10:10.894Z,72.71
2024-01-15T03:12:37.852Z,73.15
2024-01-15T03:15:05.494Z,72.93
2024-01-15T03:17:32.725Z,73.83
2024-01-15T03:19:59.872Z,73.18
2024-01-15T03:22:26.695Z,71.97
2024-01-15T03:24:54.062Z,72.50
2024-01-15T03:27:20.934Z,72.18
2024-01-15T03:29:47.976Z,72.82
2024-01-15T03:32:17.127Z,72.43
2024-01-15T03:34:44.079Z,72.20
2024-01-15T03:37:10.892Z,72.82
2024-01-15T03:39:38.016Z,73.39
2024-01-15T03:42:05.772Z,73.48
2024-01-15T03:44:32.624Z,73.45
2024-01-15T03:46:59.714Z,73.24
2024-01-15T03:49:26.756Z,74.25
2024-01-15T03:51:53.853Z,73.75
2024-01-15T03:54:21.309Z,73.84
2024-01-15T03:56:48.345Z,73.82
2024-01-15T03:59:15.258Z,74.03
2024-01-15T04:01:42.890Z,73.75
2024-01-15T04:04:09.860Z,72.78
2024-01-15T04:06:37.099Z,72.34
2024-01-15T04:09:04.030Z,73.13
2024-01-15T04:11:30.893Z,72.85
2024-01-15T04:13:58.080Z,72.67
2024-01-15T04:16:24.835Z,72.41
2024-01-15T04:18:51.798Z,72.78
2024-01-15T04:21:19.590Z,73.06
2024-01-15T04:23:46.501Z,73.03
2024-01-15T04:26:13.467Z,74.21
2024-01-15T04:28:40.289Z,74.54
2024-01-15T04:31:07.397Z,74.38
2024-01-15T04:33:34.415Z,74.63
2024-01-15T04:36:06.492Z,73.97
2024-01-15T04:38:34.166Z,72.58
2024-01-15T04:41:01.331Z,73.52
2024-01-15T04:43:28.254Z,74.34
2024-01-15T04:45:55.143Z,73.25
2024-01-15T04:48:23.979Z,73.78
2024-01-15T04:50:51.488Z,73.76
2024-01-15T04:53:18.280Z,73.37
2024-01-15T04:55:45.195Z,73.29
2024-01-15T04:58:12.063Z,72.78
2024-01-15T05:00:39.149Z,72.90
2024-01-15T05:03:07.135Z,73.06
2024-01-15T05:05:33.997Z,73.73
2024-01-15T05:08:00.890Z,73.62
2024-01-15T05:10:28.287Z,73.14
2024-01-15T05:12:55.197Z,73.37
2024-01-15T05:15:21.968Z,73.74
2024-01-15T05:17:48.820Z,73.38
2024-01-15T05:20:15.923Z,73.66
2024-01-15T05:22:42.761Z,73.70
2024-01-15T05:25:09.616Z,73.50
2024-01-15T05:27:36.547Z,73.97
2024-01-15T05:30:04.000Z,75.35
2024-01-15T05:32:31.387Z,75.21
2024-01-15T05:34:58.206Z,74.19
2024-01-15T05:37:25.006Z,74.92
2024-01-15T05:39:51.938Z,74.93
2024-01-15T05:42:18.821Z,74.33
2024-01-15T05:44:45.593Z,74.48
2024-01-15T05:47:12.390Z,74.54
2024-01-15T05:49:39.829Z,73.33
2024-01-15T05:52:07.146Z,74.26
2024-01-15T05:54:34.008Z,73.84
2024-01-15T05:57:00.992Z,74.31
2024-01-15T05:59:28.121Z,75.67
2024-01-15T06:01:55.016Z,75.71
2024-01-15T06:04:22.040Z,75.44
2024-01-15T06:06:49.100Z,74.12
2024-01-15T06:09:16.149Z,73.21
2024-01-15T06:11:43.263Z,74.28
2024-01-15T06:14:10.298Z,74.63
2024-01-15T06:16:37.066Z,74.58
2024-01-15T06:19:04.279Z,74.10
2024-01-15T06:21:31.364Z,73.45
2024-01-15T06:23:58.284Z,72.57
2024-01-15T06:26:25.197Z,73.23
2024-01-15T06:28:52.152Z,72.57
2024-01-15T06:31:19.139Z,72.78
2024-01-15T06:33:48.609Z,72.94
2024-01-15T06:36:17.465Z,73.53
2024-01-15T06:38:45.205Z,73.41
2024-01-15T06:41:12.031Z,73.25
2024-01-15T06:43:39.008Z,73.82
2024-01-15T06:46:07.936Z,73.72
2024-01-15T06:48:35.970Z,74.96
2024-01-15T06:51:03.340Z,75.54
2024-01-15T06:53:30.187Z,75.15
2024-01-15T06:55:57.011Z,75.88
2024-01-15T06:58:23.976Z,75.16
2024-01-15T07:00:51.192Z,75.05
2024-01-15T07:03:18.137Z,74.68
2024-01-15T07:05:45.214Z,75.15
2024-01-15T07:08:12.012Z,74.43
2024-01-15T07:10:38.746Z,75.56
2024-01-15T07:13:06.718Z,76.25
2024-01-15T07:15:33.886Z,75.28
2024-01-15T07:18:00.753Z,75.71
2024-01-15T07:20:28.162Z,74.96
2024-01-15T07:22:55.130Z,75.58
2024-01-15T07:25:21.999Z,75.57
2024-01-15T07:27:49.527Z,75.61
2024-01-15T07:30:16.759Z,74.98
2024-01-15T07:32:43.847Z,73.87
2024-01-15T07:35:11.499Z,74.91
2024-01-15T07:37:38.459Z,76.85
2024-01-15T07:40:06.966Z,76.33
2024-01-15T07:42:34.049Z,76.13
2024-01-15T07:45:01.787Z,76.53
2024-01-15T07:47:32.136Z,75.77
2024-01-15T07:50:03.111Z,75.62
2024-01-15T07:52:32.633Z,75.19
2024-01-15T07:55:04.682Z,75.21
2024-01-15T07:57:32.159Z,74.83
2024-01-15T07:59:59.209Z,75.10
2024-01-15T08:02:25.988Z,74.75
2024-01-15T08:04:52.948Z,75.47
2024-01-15T08:07:19.840Z,73.82
2024-01-15T08:09:49.118Z,74.86
2024-01-15T08:12:16.297Z,75.52
2024-01-15T08:14:43.187Z,74.15
2024-01-15T08:17:10.049Z,74.98
2024-01-15T08:19:37.768Z,75.23
2024-01-15T08:22:04.683Z,76.01
2024-01-15T08:24:32.691Z,75.71
2024-01-15T08:26:59.886Z,76.04
2024-01-15T08:29:27.084Z,75.26
2024-01-15T08:31:54.090Z,74.71
2024-01-15T08:34:21.122Z,75.48
2024-01-15T08:36:48.120Z,75.79
2024-01-15T08:39:15.244Z,75.03
2024-01-15T08:41:42.147Z,75.74
2024-01-15T08:44:09.030Z,76.17
2024-01-15T08:46:35.942Z,76.13
2024-01-15T08:49:04.610Z,76.05
2024-01-15T08:51:31.668Z,76.38
2024-01-15T08:53:59.288Z,75.71
2024-01-15T08:56:26.189Z,75.80
2024-01-15T08:58:52.970Z,75.50
2024-01-15T09:01:20.257Z,75.17
2024-01-15T09:03:47.800Z,75.32
2024-01-15T09:06:14.911Z,75.78
2024-01-15T09:08:45.673Z,75.90
2024-01-15T09:11:13.368Z,75.97
2024-01-15T09:13:40.939Z,76.18
2024-01-15T09:16:08.438Z,77.12
2024-01-15T09:18:36.406Z,76.52
2024-01-15T09:21:04.633Z,76.18
2024-01-15T09:23:31.371Z,76.25
2024-01-15T09:25:58.186Z,77.47
2024-01-15T09:28:25.003Z,77.58
2024-01-15T09:30:51.958Z,78.08
2024-01-15T09:33:18.989Z,77.08
2024-01-15T09:35:46.368Z,78.04
2024-01-15T09:38:13.343Z,77.49
2024-01-15T09:40:46.448Z,77.64
2024-01-15T09:43:15.156Z,77.66
2024-01-15T09:45:42.595Z,78.75
2024-01-15T09:48:09.620Z,79.05
2024-01-15T09:50:36.688Z,78.67
2024-01-15T09:53:05.625Z,78.50
2024-01-15T09:55:33.976Z,79.08
2024-01-15T09:58:03.060Z,79.21
2024-01-15T10:00:31.005Z,80.48
2024-01-15T10:02:58.053Z,82.03
2024-01-15T10:05:25.176Z,81.95
2024-01-15T10:07:54.414Z,81.53
2024-01-15T10:10:23.017Z,81.89
2024-01-15T10:12:51.081Z,82.92
2024-01-15T10:15:19.180Z,82.34
2024-01-15T10:17:46.296Z,82.81
2024-01-15T10:20:13.629Z,83.99
2024-01-15T10:22:44.459Z,84.25
2024-01-15T10:25:12.743Z,84.64
2024-01-15T10:27:41.474Z,84.57
2024-01-15T10:30:10.311Z,85.80
2024-01-15T10:32:37.778Z,85.37
2024-01-15T10:35:05.482Z,84.22
2024-01-15T10:37:34.551Z,84.03
2024-01-15T10:40:06.416Z,84.40
2024-01-15T10:42:33.626Z,83.99
2024-01-15T10:45:00.629Z,84.35
2024-01-15T10:47:27.866Z,84.35
2024-01-15T10:49:54.863Z,84.34
2024-01-15T10:52:26.110Z,84.33
2024-01-15T10:54:54.461Z,84.39
2024-01-15T10:57:23.585Z,83.58
2024-01-15T10:59:50.589Z,83.61
2024-01-15T11:02:17.904Z,83.79
2024-01-15T11:04:44.928Z,83.36
2024-01-15T11:07:13.327Z,82.68
2024-01-15T11:09:40.454Z,82.61
2024-01-15T11:12:10.511Z,83.07
2024-01-15T11:14:49.373Z,83.51
2024-01-15T11:17:18.508Z,83.84
2024-01-15T11:19:53.771Z,83.98
2024-01-15T11:22:30.396Z,85.00
2024-01-15T11:24:58.967Z,85.68
2024-01-15T11:27:48.709Z,87.67
2024-01-15T11:30:15.926Z,86.92
2024-01-15T11:32:43.876Z,86.76
2024-01-15T11:35:11.785Z,86.80
2024-01-15T11:38:08.551Z,85.88
2024-01-15T11:40:35.379Z,85.82
2024-01-15T11:43:04.048Z,85.63
2024-01-15T11:45:32.466Z,86.13
2024-01-15T11:48:16.190Z,86.50
2024-01-15T11:50:46.301Z,85.59
2024-01-15T11:53:33.364Z,84.40
2024-01-15T11:56:03.497Z,84.45
2024-01-15T11:58:31.755Z,83.01
2024-01-15T12:00:59.302Z,82.89
2024-01-15T12:03:26.442Z,82.70
2024-01-15T12:05:53.933Z,81.61
2024-01-15T12:08:24.951Z,81.14
2024-01-15T12:10:52.734Z,80.51
2024-01-15T12:13:21.360Z,80.31
2024-01-15T12:15:49.474Z,80.98
2024-01-15T12:18:20.649Z,80.07
2024-01-15T12:20:48.632Z,79.61
2024-01-15T12:23:17.672Z,79.69
2024-01-15T12:25:44.735Z,78.48
2024-01-15T12:28:11.758Z,78.40
2024-01-15T12:30:40.673Z,77.93
2024-01-15T12:33:09.185Z,78.33
2024-01-15T12:35:37.647Z,78.43
2024-01-15T12:38:05.145Z,77.51
2024-01-15T12:40:33.834Z,77.88
2024-01-15T12:43:01.976Z,79.01
2024-01-15T12:45:29.198Z,78.79
2024-01-15T12:47:56.588Z,77.64
2024-01-15T12:50:26.791Z,78.27
2024-01-15T12:52:53.666Z,78.16
2024-01-15T12:55:20.994Z,77.65
2024-01-15T12:57:48.079Z,77.66
2024-01-15T13:00:16.305Z,77.52
2024-01-15T13:02:44.871Z,76.62
2024-01-15T13:05:14.523Z,77.12
2024-01-15T13:07:45.033Z,76.66
2024-01-15T13:10:15.842Z,75.93
2024-01-15T13:12:43.157Z,75.72
2024-01-15T13:15:15.075Z,75.43
2024-01-15T13:17:47.309Z,75.24
2024-01-15T13:20:14.851Z,75.08
2024-01-15T13:22:45.335Z,75.41
2024-01-15T13:25:12.788Z,74.68
2024-01-15T13:27:40.495Z,74.26
2024-01-15T13:30:09.894Z,73.67
2024-01-15T13:32:37.360Z,73.87
2024-01-15T13:35:06.882Z,73.91
2024-01-15T13:37:34.223Z,74.58
2024-01-15T13:40:01.340Z,74.26
2024-01-15T13:42:30.210Z,75.10
2024-01-15T13:44:57.095Z,74.16
2024-01-15T13:47:25.376Z,74.47
2024-01-15T13:49:52.296Z,74.26
2024-01-15T13:52:22.006Z,73.15
2024-01-15T13:54:51.386Z,73.06
2024-01-15T13:57:21.577Z,73.37
2024-01-15T13:59:50.537Z,73.48
2024-01-15T14:02:20.649Z,73.31
2024-01-15T14:04:50.417Z,71.84
2024-01-15T14:07:18.312Z,72.17
2024-01-15T14:09:45.538Z,72.46
2024-01-15T14:12:13.165Z,71.35
2024-01-15T14:14:41.247Z,71.25
2024-01-15T14:17:10.846Z,71.09
2024-01-15T14:19:38.116Z,71.18
2024-01-15T14:22:05.210Z,71.92
2024-01-15T14:24:32.128Z,71.81
2024-01-15T14:26:59.655Z,72.20
2024-01-15T14:29:27.566Z,72.04
2024-01-15T14:31:54.921Z,71.82
2024-01-15T14:34:25.019Z,71.80
2024-01-15T14:36:55.335Z,72.02
2024-01-15T14:39:25.723Z,71.76
2024-01-15T14:41:53.562Z,72.08
2024-01-15T14:44:20.488Z,71.79
2024-01-15T14:46:47.549Z,71.86
2024-01-15T14:49:15.771Z,71.59
2024-01-15T14:51:43.686Z,71.80
2024-01-15T14:54:11.801Z,71.56
2024-01-15T14:56:39.602Z,71.89
2024-01-15T14:59:06.442Z,71.96
2024-01-15T15:01:33.640Z,72.51
2024-01-15T15:04:01.096Z,73.08
2024-01-15T15:06:29.033Z,71.65
2024-01-15T15:08:59.825Z,70.97
2024-01-15T15:11:29.883Z,70.28
2024-01-15T15:13:56.735Z,70.65
2024-01-15T15:16:23.789Z,69.34
2024-01-15T15:18:56.259Z,69.26
2024-01-15T15:21:32.034Z,69.91
2024-01-15T15:23:58.986Z,69.29
2024-01-15T15:26:25.961Z,69.15
2024-01-15T15:28:53.120Z,68.91
2024-01-15T15:31:26.216Z,68.93
2024-01-15T15:33:54.252Z,69.36
2024-01-15T15:36:21.377Z,69.34
2024-01-15T15:38:49.734Z,69.51
2024-01-15T15:41:16.733Z,69.47
2024-01-15T15:43:43.681Z,69.73
2024-01-15T15:46:10.822Z,69.78
2024-01-15T15:48:37.864Z,69.89
2024-01-15T15:51:05.006Z,69.95
2024-01-15T15:53:32.006Z,69.16
2024-01-15T15:55:59.655Z,69.25
2024-01-15T15:58:27.397Z,69.40
2024-01-15T16:00:54.641Z,68.95
2024-01-15T16:03:21.791Z,69.18
2024-01-15T16:05:52.571Z,69.00
2024-01-15T16:08:21.496Z,68.58
2024-01-15T16:10:53.201Z,68.10
2024-01-15T16:13:20.762Z,68.65
2024-01-15T16:15:48.289Z,67.75
2024-01-15T16:23:19.812Z,66.72
2024-01-15T16:23:34.625Z,66.07
2024-01-15T16:24:11.505Z,65.89
2024-01-15T16:26:38.797Z,65.48
2024-01-15T16:29:06.570Z,65.82
2024-01-15T16:31:33.414Z,66.71
2024-01-15T16:34:05.113Z,66.56
2024-01-15T16:36:34.409Z,66.72
2024-01-15T16:39:01.999Z,67.73
2024-01-15T16:41:29.530Z,67.34
2024-01-15T16:43:56.670Z,67.30
2024-01-15T16:46:23.621Z,67.11
2024-01-15T16:48:51.152Z,67.22
2024-01-15T16:51:18.544Z,67.21
2024-01-15T16:53:46.531Z,67.95
2024-01-15T16:56:13.763Z,67.63
2024-01-15T16:58:40.870Z,67.55
2024-01-15T17:01:09.412Z,67.66
2024-01-15T17:03:36.458Z,66.91
2024-01-15T17:06:03.941Z,66.56
2024-01-15T17:08:31.579Z,66.46
2024-01-15T17:11:00.665Z,66.43
2024-01-15T17:13:29.079Z,65.98
2024-01-15T17:15:56.149Z,64.74
2024-01-15T17:18:23.421Z,65.03
2024-01-15T17:20:50.407Z,64.73
2024-01-15T17:23:17.303Z,64.72
2024-01-15T17:25:44.104Z,65.11
2024-01-15T17:28:11.017Z,64.86
2024-01-15T17:30:37.943Z,64.60
2024-01-15T17:33:05.528Z,64.86
2024-01-15T17:35:32.575Z,64.83
2024-01-15T17:37:59.509Z,64.68
2024-01-15T17:40:27.073Z,65.00
2024-01-15T17:42:53.835Z,64.64
2024-01-15T17:45:20.861Z,64.64
2024-01-15T17:47:50.340Z,64.42
2024-01-15T17:50:19.870Z,64.68
2024-01-15T17:52:46.752Z,64.73
2024-01-15T17:55:13.827Z,65.04
2024-01-15T17:57:41.779Z,65.67
2024-01-15T18:00:08.896Z,66.08
2024-01-15T18:02:36.085Z,66.65
2024-01-15T18:05:04.273Z,66.83
2024-01-15T18:07:31.304Z,67.19
2024-01-15T18:09:59.122Z,67.76
2024-01-15T18:12:27.015Z,67.30
2024-01-15T18:14:54.752Z,66.96
2024-01-15T18:17:25.306Z,67.71
2024-01-15T18:19:52.266Z,67.65
2024-01-15T18:22:19.619Z,68.04
2024-01-15T18:24:48.639Z,68.26
2024-01-15T18:27:22.428Z,68.94
2024-01-15T18:29:59.698Z,69.38
2024-01-15T18:32:52.185Z,69.60
2024-01-15T18:35:23.280Z,70.05
2024-01-15T18:38:01.404Z,69.96
2024-01-15T18:40:40.529Z,70.29
2024-01-15T18:43:10.241Z,70.87
2024-01-15T18:45:39.244Z,71.03
2024-01-15T18:48:08.325Z,71.13
2024-01-15T18:50:35.487Z,71.16
2024-01-15T18:53:04.175Z,71.20
2024-01-15T18:55:31.630Z,71.21
2024-01-15T18:58:00.696Z,71.10
2024-01-15T19:00:30.454Z,71.12
2024-01-15T19:02:59.292Z,71.18
2024-01-15T19:05:26.721Z,70.57
2024-01-15T19:07:57.126Z,70.58
2024-01-15T19:10:24.144Z,71.00
2024-01-15T19:12:51.127Z,70.48
2024-01-15T19:15:20.302Z,70.62
2024-01-15T19:17:50.074Z,69.81
2024-01-15T19:20:18.303Z,70.04
2024-01-15T19:22:45.207Z,70.07
2024-01-15T19:25:13.913Z,70.34
2024-01-15T19:27:45.675Z,70.41
2024-01-15T19:30:15.324Z,71.30
2024-01-15T19:32:42.203Z,70.77
2024-01-15T19:35:11.881Z,69.92
2024-01-15T19:37:39.045Z,69.74
2024-01-15T19:40:07.759Z,69.52
2024-01-15T19:42:34.645Z,69.93
2024-01-15T19:45:01.595Z,69.41
2024-01-15T19:47:31.417Z,70.46
2024-01-15T19:49:59.189Z,69.88
2024-01-15T19:52:26.244Z,70.06
2024-01-15T19:54:53.298Z,69.73
2024-01-15T19:57:20.343Z,70.03
2024-01-15T19:59:49.324Z,69.97
2024-01-15T20:02:16.427Z,69.82
2024-01-15T20:04:43.915Z,69.70
2024-01-15T20:07:11.303Z,69.08
2024-01-15T20:09:42.374Z,69.36
2024-01-15T20:12:14.098Z,69.58
2024-01-15T20:14:41.252Z,69.06
2024-01-15T20:17:08.388Z,68.92
2024-01-15T20:19:36.119Z,68.54
2024-01-15T20:22:12.071Z,68.54
2024-01-15T20:24:39.003Z,68.46
2024-01-15T20:27:07.072Z,68.43
2024-01-15T20:29:35.598Z,68.89
2024-01-15T20:32:03.347Z,69.25
2024-01-15T20:34:30.552Z,69.29
2024-01-15T20:36:57.384Z,69.19
2024-01-15T20:39:24.146Z,68.86
2024-01-15T20:41:59.314Z,69.26
2024-01-15T20:44:35.077Z,68.68
2024-01-15T20:47:04.648Z,68.50
2024-01-15T20:49:31.588Z,68.49
2024-01-15T20:52:05.485Z,68.50
2024-01-15T20:54:34.547Z,68.63
2024-01-15T20:57:04.150Z,69.37
2024-01-15T20:59:39.721Z,69.45
2024-01-15T21:02:18.959Z,69.44
2024-01-15T21:04:45.927Z,69.39
2024-01-15T21:07:21.939Z,68.71
2024-01-15T21:10:18.798Z,69.26
2024-01-15T21:13:17.524Z,69.33
2024-01-15T21:15:54.194Z,69.36
2024-01-15T21:18:25.319Z,69.60
2024-01-15T21:20:53.073Z,69.58
2024-01-15T21:23:29.527Z,69.84
2024-01-15T21:25:58.662Z,70.25
2024-01-15T21:28:25.975Z,70.49
2024-01-15T21:30:53.727Z,70.78
2024-01-15T21:33:20.839Z,70.73
2024-01-15T21:35:48.649Z,69.93
2024-01-15T21:38:17.798Z,69.78
2024-01-15T21:40:49.138Z,69.83
2024-01-15T21:43:16.177Z,69.36
2024-01-15T21:45:47.941Z,69.56
2024-01-15T21:48:17.496Z,69.50
2024-01-15T21:50:48.213Z,70.37
2024-01-15T21:53:17.738Z,70.45
2024-01-15T21:55:45.321Z,70.38
2024-01-15T21:58:15.077Z,70.42
2024-01-15T22:00:56.390Z,70.56
2024-01-15T22:03:23.772Z,69.89
2024-01-15T22:05:52.360Z,70.59
2024-01-15T22:08:20.377Z,70.63
2024-01-15T22:10:47.348Z,70.48
2024-01-15T22:13:14.211Z,69.67
2024-01-15T22:15:46.178Z,71.73
2024-01-15T22:18:13.862Z,70.54
2024-01-15T22:20:41.148Z,70.16
2024-01-15T22:23:08.072Z,69.89
2024-01-15T22:25:35.795Z,69.50
2024-01-15T22:28:05.020Z,69.21
2024-01-15T22:30:31.925Z,69.17
2024-01-15T22:32:58.831Z,69.61
2024-01-15T22:35:30.164Z,69.86
2024-01-15T22:37:57.097Z,69.74
2024-01-15T22:40:24.200Z,70.23
2024-01-15T22:42:51.277Z,70.55
2024-01-15T22:45:18.513Z,70.56
2024-01-15T22:47:46.669Z,70.45
2024-01-15T22:50:15.523Z,70.93
2024-01-15T22:52:45.100Z,70.97
2024-01-15T22:55:12.136Z,70.95
2024-01-15T22:57:39.027Z,70.78
2024-01-15T23:00:19.554Z,70.77
2024-01-15T23:02:48.118Z,70.47
2024-01-15T23:05:18.902Z,70.71
2024-01-15T23:07:52.012Z,70.82
2024-01-15T23:10:21.991Z,70.44
2024-01-15T23:12:57.389Z,70.56
2024-01-15T23:15:28.345Z,71.26
2024-01-15T23:17:57.493Z,70.98
2024-01-15T23:20:28.013Z,70.82
2024-01-15T23:22:54.872Z,70.96
2024-01-15T23:25:22.103Z,71.25
2024-01-15T23:27:51.750Z,71.14
2024-01-15T23:30:18.896Z,71.40
2024-01-15T23:32:49.756Z,71.18
2024-01-15T23:35:17.249Z,71.02
2024-01-15T23:37:44.258Z,71.44
2024-01-15T23:40:14.002Z,70.47
2024-01-15T23:42:40.998Z,70.06
2024-01-15T23:45:08.618Z,69.87
2024-01-15T23:47:35.939Z,70.38
2024-01-15T23:50:04.525Z,71.23
2024-01-15T23:52:36.615Z,71.31
2024-01-15T23:55:06.622Z,71.50
2024-01-15T23:57:33.444Z,70.75
